Portada
METAR-TAF:

METAR-TAF

Aeroports :

Aeroport de Reus

Reus, Espanya

latitud: 41-09N, longitud: 001-10E, altitud: 71 m

Observació

L'informe es va fer fa 24 minuts, a les 05:00 UTC
Vent 9 kt del Nord-Est
Temperatura 15°C
Humitat 63%
Pressió 1018 hPa
Visibilitat 10 km o més
sense núvols per sota de 1500 mi sense presència de cumulonimbus.

METAR: LERS 190500Z 05009KT CAVOK 15/08 Q1018

Hora: 07:24 (05:24 UTC)

Pronòstic

L'informe es va fer fa 3 hores i 24 minuts, a les 02:00 UTC
Pronòstic vàlid del 19 a les 03 UTC al 20 a les 03 UTC
Vent 15 kt del Est/Nord-Est
Visibilitat 10 km o més
Núvols disperses a una alçada de 2000 ft
Temporalment
l' 19 a les 07 UTC al 19 a les 18 UTC
Vent 20 kt del Est/Nord-Est amb ràfegues de 30 kt
Evolucionant progressivament
l' 19 a les 18 UTC al 19 a les 20 UTC
Vent 10 kt del Nord-Est

TAF: LERS 190200Z 1903/2003 06015KT 9999 SCT020 TX22/1912Z TN13/1906Z TEMPO 1907/1918 07020G30KT BECMG 1918/1920 04010KT

Observacions i pronòstics meteorològics de més de 4000 aeroports (METAR i TAF).

Les estacions disponibles són els punts grocs i vermells al mapa.

Posi el ratolí al punt desitjat per veure el nom de l'estació.

Feu clic per veure les observacions i els pronòstics meteorològics.

Per canviar el mapa: feu clic els botons verds amb una creu de color negre per apropar; al botó verd amb un guió per allunyar la imatge; o en les fletxes verdes per a mapes adjacents.


METAR-TAF: